createdAt,value
2023-03-26T00:01:15.783Z,97835.28
2023-03-26T00:03:47.483Z,97832.72
2023-03-26T00:06:16.956Z,97828.56
2023-03-26T00:08:45.983Z,97824.09
2023-03-26T00:11:16.199Z,97842.16
2023-03-26T00:13:44.227Z,97831.97
2023-03-26T00:16:14.097Z,97818.88
2023-03-26T00:18:43.826Z,97840.19
2023-03-26T00:21:15.481Z,97819.34
2023-03-26T00:23:44.175Z,97857.06
2023-03-26T00:26:11.723Z,97841.28
2023-03-26T00:28:43.112Z,97838.28
2023-03-26T00:31:16.139Z,97860.06
2023-03-26T00:33:44.263Z,97826.34
2023-03-26T00:36:17.741Z,97850.84
2023-03-26T00:38:48.093Z,97854.13
2023-03-26T00:41:18.133Z,97845.91
2023-03-26T00:43:49.536Z,97857.28
2023-03-26T00:46:18.544Z,97871.56
2023-03-26T00:48:47.243Z,97835.03
2023-03-26T00:51:16.637Z,97846.38
2023-03-26T00:53:48.944Z,97881.16
2023-03-26T00:56:17.303Z,97830.53
2023-03-26T00:58:45.667Z,97857.53
2023-03-26T01:01:16.159Z,97852.19
2023-03-26T01:04:00.903Z,97838.31
2023-03-26T01:06:36.829Z,97873.09
2023-03-26T01:09:19.512Z,97864.59
2023-03-26T01:11:48.807Z,97838.00
2023-03-26T01:14:27.322Z,97860.72
2023-03-26T01:17:02.142Z,97829.81
2023-03-26T01:19:34.436Z,97868.78
2023-03-26T01:22:02.066Z,97849.81
2023-03-26T01:24:29.664Z,97856.09
2023-03-26T01:27:02.444Z,97881.00
2023-03-26T01:29:49.196Z,97878.03
2023-03-26T01:32:28.226Z,97856.25
2023-03-26T01:35:23.523Z,97869.97
2023-03-26T01:38:29.739Z,97897.91
2023-03-26T01:41:06.107Z,97890.16
2023-03-26T01:43:46.398Z,97889.38
2023-03-26T01:46:16.508Z,97879.50
2023-03-26T01:48:46.440Z,97869.41
2023-03-26T01:51:16.928Z,97891.03
2023-03-26T01:53:47.177Z,97889.28
2023-03-26T01:56:20.516Z,97899.56
2023-03-26T02:02:13.263Z,97903.00
2023-03-26T02:05:05.585Z,97874.88
2023-03-26T02:07:42.160Z,97898.81
2023-03-26T02:10:17.384Z,97898.34
2023-03-26T02:12:45.143Z,97889.72
2023-03-26T02:15:13.841Z,97892.22
2023-03-26T02:17:41.788Z,97883.56
2023-03-26T02:20:14.759Z,97905.22
2023-03-26T02:22:46.163Z,97888.19
2023-03-26T02:25:16.662Z,97888.50
2023-03-26T02:27:45.193Z,97884.00
2023-03-26T02:30:20.930Z,97910.72
2023-03-26T02:32:52.979Z,97891.91
2023-03-26T02:35:22.582Z,97916.94
2023-03-26T02:37:51.274Z,97922.91
2023-03-26T02:40:21.447Z,97911.88
2023-03-26T02:42:49.403Z,97898.91
2023-03-26T02:45:17.323Z,97900.09
2023-03-26T02:47:46.426Z,97904.13
2023-03-26T02:50:14.073Z,97899.22
2023-03-26T02:52:42.608Z,97912.22
2023-03-26T02:55:10.000Z,97908.63
2023-03-26T02:57:39.351Z,97932.50
2023-03-26T03:00:55.389Z,97940.22
2023-03-26T03:03:24.823Z,97905.72
2023-03-26T03:05:53.292Z,97915.66
2023-03-26T03:08:22.930Z,97906.81
2023-03-26T03:11:01.210Z,97912.81
2023-03-26T03:13:29.126Z,97920.94
2023-03-26T03:15:57.635Z,97908.97
2023-03-26T03:18:25.721Z,97913.50
2023-03-26T03:20:54.349Z,97930.69
2023-03-26T03:23:22.413Z,97911.13
2023-03-26T03:25:51.280Z,97929.34
2023-03-26T03:28:19.544Z,97937.09
2023-03-26T03:30:47.831Z,97927.16
2023-03-26T03:33:15.238Z,97934.50
2023-03-26T03:35:43.145Z,97923.31
2023-03-26T03:38:11.553Z,97930.06
2023-03-26T03:40:39.409Z,97901.53
2023-03-26T03:43:06.971Z,97920.09
2023-03-26T03:45:34.563Z,97912.09
2023-03-26T03:48:02.782Z,97912.84
2023-03-26T03:50:30.463Z,97914.31
2023-03-26T03:52:59.526Z,97907.81
2023-03-26T03:55:28.501Z,97902.25
2023-03-26T03:57:57.174Z,97893.13
2023-03-26T04:00:24.964Z,97882.19
2023-03-26T04:02:54.839Z,97913.03
2023-03-26T04:05:23.765Z,97909.19
2023-03-26T04:07:51.470Z,97895.47
2023-03-26T04:10:18.918Z,97895.47
2023-03-26T04:12:46.329Z,97898.94
2023-03-26T04:15:14.368Z,97905.75
2023-03-26T04:17:47.543Z,97898.41
2023-03-26T04:20:19.548Z,97899.91
2023-03-26T04:22:47.061Z,97884.13
2023-03-26T04:25:15.880Z,97889.06
2023-03-26T04:27:45.003Z,97920.38
2023-03-26T04:30:17.506Z,97914.16
2023-03-26T04:32:45.657Z,97892.47
2023-03-26T04:35:17.658Z,97916.69
2023-03-26T04:37:46.335Z,97908.25
2023-03-26T04:40:21.187Z,97931.81
2023-03-26T04:42:49.055Z,97904.06
2023-03-26T04:45:23.106Z,97924.38
2023-03-26T04:47:52.193Z,97912.44
2023-03-26T04:50:19.725Z,97904.09
2023-03-26T04:52:47.551Z,97926.59
2023-03-26T04:58:06.523Z,97912.06
2023-03-26T05:00:34.160Z,97920.91
2023-03-26T05:03:04.013Z,97914.13
2023-03-26T05:05:31.856Z,97925.69
2023-03-26T05:07:59.622Z,97918.81
2023-03-26T05:10:27.443Z,97912.19
2023-03-26T05:12:54.754Z,97900.81
2023-03-26T05:15:22.646Z,97925.25
2023-03-26T05:17:50.337Z,97884.66
2023-03-26T05:20:30.792Z,97889.47
2023-03-26T05:22:58.252Z,97877.03
2023-03-26T05:25:26.535Z,97904.97
2023-03-26T05:27:54.081Z,97909.72
2023-03-26T05:30:22.999Z,97913.91
2023-03-26T05:32:51.375Z,97911.69
2023-03-26T05:35:19.842Z,97900.31
2023-03-26T05:37:50.502Z,97899.88
2023-03-26T05:40:18.342Z,97911.84
2023-03-26T05:42:46.508Z,97877.97
2023-03-26T05:45:15.810Z,97903.16
2023-03-26T05:47:44.014Z,97922.44
2023-03-26T05:52:50.034Z,97892.28
2023-03-26T05:55:19.797Z,97889.16
2023-03-26T06:00:25.781Z,97893.41
2023-03-26T06:03:01.126Z,97887.53
2023-03-26T06:05:38.245Z,97887.06
2023-03-26T06:08:07.254Z,97874.41
2023-03-26T06:10:39.026Z,97886.06
2023-03-26T06:13:07.268Z,97895.91
2023-03-26T06:15:35.685Z,97880.47
2023-03-26T06:18:05.261Z,97888.19
2023-03-26T06:20:38.242Z,97869.47
2023-03-26T06:23:07.280Z,97893.56
2023-03-26T06:25:35.616Z,97885.34
2023-03-26T06:28:03.822Z,97896.63
2023-03-26T06:30:33.876Z,97872.09
2023-03-26T06:33:03.021Z,97890.56
2023-03-26T06:35:43.714Z,97896.38
2023-03-26T06:38:43.322Z,97871.78
2023-03-26T06:41:12.331Z,97864.16
2023-03-26T06:43:39.845Z,97880.91
2023-03-26T06:46:07.337Z,97911.81
2023-03-26T06:48:35.733Z,97901.50
2023-03-26T06:51:04.150Z,97901.03
2023-03-26T06:53:31.666Z,97883.25
2023-03-26T06:55:59.114Z,97873.78
2023-03-26T06:58:27.356Z,97886.81
2023-03-26T07:00:56.060Z,97879.69
2023-03-26T07:03:24.206Z,97884.94
2023-03-26T07:05:51.608Z,97896.13
2023-03-26T07:08:19.016Z,97891.84
2023-03-26T07:10:48.835Z,97885.44
2023-03-26T07:13:18.799Z,97853.59
2023-03-26T07:15:52.004Z,97834.25
2023-03-26T07:18:19.469Z,97878.44
2023-03-26T07:20:47.336Z,97864.38
2023-03-26T07:23:21.232Z,97842.25
2023-03-26T07:25:54.523Z,97836.22
2023-03-26T07:29:04.701Z,97866.59
2023-03-26T07:35:32.894Z,97850.88
2023-03-26T07:38:18.819Z,97863.34
2023-03-26T07:40:46.449Z,97862.34
2023-03-26T07:43:45.387Z,97844.81
2023-03-26T07:46:14.469Z,97842.56
2023-03-26T07:48:44.354Z,97857.00
2023-03-26T07:51:12.975Z,97854.13
2023-03-26T07:53:40.675Z,97835.81
2023-03-26T07:56:12.670Z,97844.25
2023-03-26T07:58:46.682Z,97855.91
2023-03-26T08:01:43.895Z,97859.91
2023-03-26T08:04:28.379Z,97847.88
2023-03-26T08:07:11.913Z,97856.38
2023-03-26T08:09:57.001Z,97832.47
2023-03-26T08:12:50.665Z,97837.13
2023-03-26T08:16:11.225Z,97811.53
2023-03-26T08:19:06.905Z,97797.03
2023-03-26T08:21:56.579Z,97800.56
2023-03-26T08:24:24.064Z,97821.69
2023-03-26T08:27:22.796Z,97814.78
2023-03-26T08:30:18.226Z,97821.69
2023-03-26T08:33:23.188Z,97814.50
2023-03-26T08:35:52.458Z,97802.13
2023-03-26T08:38:21.284Z,97824.59
2023-03-26T08:41:15.480Z,97815.91
2023-03-26T08:44:02.827Z,97817.66
2023-03-26T08:46:49.119Z,97816.00
2023-03-26T08:49:44.860Z,97788.38
2023-03-26T08:52:19.946Z,97781.13
2023-03-26T08:55:23.112Z,97796.94
2023-03-26T08:58:35.314Z,97802.44
2023-03-26T09:01:21.618Z,97805.66
2023-03-26T09:10:39.020Z,97803.91
2023-03-26T09:13:28.564Z,97817.50
2023-03-26T09:16:45.017Z,97797.47
2023-03-26T09:23:22.159Z,97808.47
2023-03-26T09:29:26.823Z,97801.78
2023-03-26T09:36:09.285Z,97773.06
2023-03-26T09:38:50.549Z,97788.19
2023-03-26T09:41:53.576Z,97776.50
2023-03-26T09:47:53.752Z,97802.03
2023-03-26T09:50:32.904Z,97805.84
2023-03-26T09:53:14.002Z,97799.84
2023-03-26T09:55:49.648Z,97799.69
2023-03-26T10:01:35.657Z,97757.13
2023-03-26T10:04:03.127Z,97782.50
2023-03-26T10:06:57.477Z,97784.66
2023-03-26T10:09:34.579Z,97767.75
2023-03-26T10:12:22.333Z,97765.06
2023-03-26T10:15:03.204Z,97772.50
2023-03-26T10:18:28.024Z,97762.63
2023-03-26T10:21:07.704Z,97750.91
2023-03-26T10:24:08.980Z,97751.38
2023-03-26T10:27:09.100Z,97727.97
2023-03-26T10:30:24.304Z,97758.75
2023-03-26T10:33:06.318Z,97744.25
2023-03-26T10:36:11.325Z,97746.00
2023-03-26T10:39:11.699Z,97741.53
2023-03-26T10:42:30.248Z,97736.69
2023-03-26T10:45:19.390Z,97746.25
2023-03-26T10:48:28.254Z,97730.22
2023-03-26T10:51:20.933Z,97716.53
2023-03-26T10:54:32.158Z,97713.25
2023-03-26T10:57:03.392Z,97733.63
2023-03-26T10:59:36.172Z,97709.66
2023-03-26T11:02:29.678Z,97731.94
2023-03-26T11:05:21.765Z,97717.41
2023-03-26T11:08:14.922Z,97708.91
2023-03-26T11:11:01.906Z,97707.50
2023-03-26T11:13:57.182Z,97715.22
2023-03-26T11:16:27.787Z,97734.84
2023-03-26T11:19:08.055Z,97727.69
2023-03-26T11:21:50.164Z,97733.56
2023-03-26T11:24:44.040Z,97698.56
2023-03-26T11:30:49.292Z,97728.63
2023-03-26T11:33:32.792Z,97688.59
2023-03-26T11:36:09.429Z,97712.94
2023-03-26T11:38:41.178Z,97707.19
2023-03-26T11:41:23.419Z,97680.84
2023-03-26T11:43:57.032Z,97688.75
2023-03-26T11:47:02.270Z,97720.34
2023-03-26T11:49:30.326Z,97695.91
2023-03-26T11:52:00.099Z,97688.44
2023-03-26T11:54:28.333Z,97679.41
2023-03-26T11:57:05.594Z,97695.72
2023-03-26T12:00:18.505Z,97690.41
2023-03-26T12:02:47.856Z,97672.69
2023-03-26T12:05:26.948Z,97697.81
2023-03-26T12:08:00.314Z,97704.22
2023-03-26T12:10:43.516Z,97707.59
2023-03-26T12:13:36.910Z,97706.97
2023-03-26T12:16:11.757Z,97715.56
2023-03-26T12:18:41.570Z,97697.88
2023-03-26T12:21:11.243Z,97691.78
2023-03-26T12:23:42.916Z,97686.47
2023-03-26T12:26:37.593Z,97694.63
2023-03-26T12:29:14.811Z,97684.25
2023-03-26T12:31:54.484Z,97670.44
2023-03-26T12:34:31.475Z,97669.72
2023-03-26T12:37:07.776Z,97667.00
2023-03-26T12:40:07.852Z,97672.69
2023-03-26T12:44:49.271Z,97648.03
2023-03-26T12:45:32.377Z,97636.94
2023-03-26T12:48:04.337Z,97650.22
2023-03-26T12:50:51.728Z,97681.75
2023-03-26T12:53:42.284Z,97640.31
2023-03-26T12:59:07.844Z,97633.81
2023-03-26T13:01:40.115Z,97659.72
2023-03-26T13:04:34.468Z,97657.50
2023-03-26T13:07:21.715Z,97626.88
2023-03-26T13:10:29.681Z,97634.94
2023-03-26T13:13:18.195Z,97646.50
2023-03-26T13:15:53.165Z,97643.28
2023-03-26T13:18:36.090Z,97636.38
2023-03-26T13:21:29.276Z,97642.28
2023-03-26T13:24:09.366Z,97623.06
2023-03-26T13:27:07.648Z,97640.31
2023-03-26T13:29:47.342Z,97628.50
2023-03-26T13:32:48.240Z,97618.44
2023-03-26T13:35:43.852Z,97627.41
2023-03-26T13:38:28.253Z,97627.13
2023-03-26T13:41:18.500Z,97621.72
2023-03-26T13:44:23.670Z,97621.22
2023-03-26T13:47:03.308Z,97605.25
2023-03-26T13:49:40.907Z,97606.25
2023-03-26T13:52:20.218Z,97575.41
2023-03-26T13:54:55.368Z,97611.19
2023-03-26T14:00:27.262Z,97574.00
2023-03-26T14:03:03.838Z,97600.69
2023-03-26T14:05:43.056Z,97574.81
2023-03-26T14:08:26.131Z,97561.28
2023-03-26T14:11:07.279Z,97581.25
2023-03-26T14:13:58.568Z,97560.28
2023-03-26T14:16:39.174Z,97585.66
2023-03-26T14:22:57.092Z,97583.88
2023-03-26T14:25:46.266Z,97586.59
2023-03-26T14:28:22.624Z,97558.31
2023-03-26T14:31:19.725Z,97583.47
2023-03-26T14:33:58.234Z,97569.63
2023-03-26T14:37:06.328Z,97575.06
2023-03-26T14:40:08.745Z,97580.50
2023-03-26T14:42:54.027Z,97567.41
2023-03-26T14:45:44.261Z,97578.47
2023-03-26T14:48:54.414Z,97566.09
2023-03-26T14:51:49.406Z,97580.91
2023-03-26T14:54:21.114Z,97568.28
2023-03-26T14:57:22.458Z,97570.00
2023-03-26T15:00:24.043Z,97563.53
2023-03-26T15:03:10.521Z,97574.16
2023-03-26T15:06:23.795Z,97568.41
2023-03-26T15:09:10.018Z,97558.13
2023-03-26T15:11:52.959Z,97554.63
2023-03-26T15:14:43.117Z,97518.63
2023-03-26T15:17:29.384Z,97560.72
2023-03-26T15:20:34.911Z,97562.44
2023-03-26T15:23:39.192Z,97560.22
2023-03-26T15:26:38.320Z,97563.66
2023-03-26T15:29:27.428Z,97565.31
2023-03-26T15:32:19.717Z,97549.53
2023-03-26T15:34:48.981Z,97543.09
2023-03-26T15:37:34.964Z,97542.63
2023-03-26T15:40:13.384Z,97549.72
2023-03-26T15:42:53.261Z,97554.13
2023-03-26T15:45:32.892Z,97551.19
2023-03-26T15:48:19.314Z,97546.72
2023-03-26T15:50:56.320Z,97550.16
2023-03-26T15:53:24.084Z,97552.13
2023-03-26T15:56:33.362Z,97530.59
2023-03-26T15:59:19.874Z,97537.03
2023-03-26T16:02:08.052Z,97537.72
2023-03-26T16:05:06.520Z,97554.19
2023-03-26T16:08:10.357Z,97536.00
2023-03-26T16:10:52.743Z,97546.81
2023-03-26T16:13:20.486Z,97550.72
2023-03-26T16:16:16.655Z,97521.91
2023-03-26T16:18:47.353Z,97544.31
2023-03-26T16:21:32.755Z,97554.66
2023-03-26T16:24:03.707Z,97546.34
2023-03-26T16:27:11.253Z,97542.44
2023-03-26T16:30:00.849Z,97545.16
2023-03-26T16:32:44.862Z,97532.00
2023-03-26T16:35:15.520Z,97534.81
2023-03-26T16:41:27.423Z,97527.66
2023-03-26T16:44:25.666Z,97536.03
2023-03-26T16:47:30.997Z,97533.31
2023-03-26T16:53:35.111Z,97528.38
2023-03-26T16:56:23.307Z,97551.19
2023-03-26T16:59:00.998Z,97534.97
2023-03-26T17:01:44.005Z,97542.34
2023-03-26T17:04:25.715Z,97525.88
2023-03-26T17:07:04.901Z,97529.31
2023-03-26T17:09:43.355Z,97538.63
2023-03-26T17:12:55.801Z,97520.69
2023-03-26T17:15:56.008Z,97530.00
2023-03-26T17:18:46.483Z,97530.22
2023-03-26T17:21:46.919Z,97525.78
2023-03-26T17:24:28.696Z,97544.41
2023-03-26T17:27:07.217Z,97513.97
2023-03-26T17:30:10.784Z,97490.28
2023-03-26T17:33:06.513Z,97509.19
2023-03-26T17:35:39.669Z,97522.53
2023-03-26T17:38:18.110Z,97521.34
2023-03-26T17:40:56.117Z,97517.50
2023-03-26T17:46:43.607Z,97499.47
2023-03-26T17:49:22.911Z,97487.38
2023-03-26T17:52:11.018Z,97531.25
2023-03-26T17:54:51.502Z,97478.75
2023-03-26T17:57:31.452Z,97508.50
2023-03-26T18:00:02.616Z,97490.28
2023-03-26T18:08:27.838Z,97506.94
2023-03-26T18:11:19.890Z,97481.97
2023-03-26T18:14:00.617Z,97510.84
2023-03-26T18:16:38.414Z,97482.94
2023-03-26T18:19:23.752Z,97470.75
2023-03-26T18:22:07.621Z,97488.16
2023-03-26T18:24:41.364Z,97491.56
2023-03-26T18:30:01.852Z,97519.47
2023-03-26T18:32:34.204Z,97488.69
2023-03-26T18:35:19.653Z,97497.50
2023-03-26T18:37:53.534Z,97476.91
2023-03-26T18:40:24.309Z,97511.09
2023-03-26T18:43:07.729Z,97489.38
2023-03-26T18:45:39.796Z,97486.50
2023-03-26T18:48:21.939Z,97476.91
2023-03-26T18:51:10.275Z,97491.03
2023-03-26T18:53:58.202Z,97494.56
2023-03-26T18:56:40.174Z,97466.94
2023-03-26T18:59:28.367Z,97512.97
2023-03-26T19:01:58.157Z,97459.59
2023-03-26T19:04:31.797Z,97481.66
2023-03-26T19:07:01.914Z,97454.50
2023-03-26T19:09:37.825Z,97496.38
2023-03-26T19:12:15.220Z,97515.56
2023-03-26T19:15:25.522Z,97507.25
2023-03-26T19:18:04.122Z,97476.44
2023-03-26T19:20:38.233Z,97519.41
2023-03-26T19:23:13.774Z,97487.72
2023-03-26T19:25:55.426Z,97496.81
2023-03-26T19:28:29.817Z,97490.19
2023-03-26T19:31:08.964Z,97489.09
2023-03-26T19:33:40.908Z,97471.13
2023-03-26T19:36:18.196Z,97508.47
2023-03-26T19:38:53.059Z,97507.41
2023-03-26T19:41:28.757Z,97532.28
2023-03-26T19:44:03.228Z,97483.69
2023-03-26T19:46:53.618Z,97493.00
2023-03-26T19:49:53.515Z,97514.16
2023-03-26T19:52:27.921Z,97506.78
2023-03-26T19:55:05.342Z,97513.84
2023-03-26T19:57:36.680Z,97514.38
2023-03-26T20:00:15.173Z,97485.25
2023-03-26T20:02:49.507Z,97485.06
2023-03-26T20:05:26.681Z,97479.44
2023-03-26T20:07:57.444Z,97480.91
2023-03-26T20:10:25.550Z,97480.13
2023-03-26T20:12:53.782Z,97509.25
2023-03-26T20:15:41.553Z,97476.91
2023-03-26T20:18:09.087Z,97514.25
2023-03-26T20:20:37.535Z,97490.47
2023-03-26T20:23:13.396Z,97485.06
2023-03-26T20:25:49.540Z,97470.16
2023-03-26T20:28:21.460Z,97484.34
2023-03-26T20:30:49.916Z,97493.41
2023-03-26T20:33:27.030Z,97480.34
2023-03-26T20:35:59.037Z,97479.38
2023-03-26T20:38:39.038Z,97476.97
2023-03-26T20:41:15.040Z,97457.00
2023-03-26T20:43:43.212Z,97477.69
2023-03-26T20:46:22.082Z,97452.97
2023-03-26T20:48:50.643Z,97475.00
2023-03-26T20:51:20.262Z,97466.09
2023-03-26T20:53:48.607Z,97475.75
2023-03-26T20:56:20.215Z,97469.16
2023-03-26T20:59:00.416Z,97443.94
2023-03-26T21:01:36.104Z,97452.91
2023-03-26T21:04:07.187Z,97451.22
2023-03-26T21:06:34.884Z,97436.66
2023-03-26T21:09:02.888Z,97464.06
2023-03-26T21:11:51.662Z,97469.00
2023-03-26T21:14:41.849Z,97461.13
2023-03-26T21:17:23.579Z,97462.88
2023-03-26T21:19:52.360Z,97428.19
2023-03-26T21:23:00.776Z,97456.56
2023-03-26T21:25:47.223Z,97462.16
2023-03-26T21:28:32.278Z,97457.19
2023-03-26T21:31:15.795Z,97425.81
2023-03-26T21:33:43.291Z,97437.66
2023-03-26T21:36:12.211Z,97456.63
2023-03-26T21:38:40.489Z,97436.28
2023-03-26T21:41:08.505Z,97439.09
2023-03-26T21:43:35.880Z,97420.66
2023-03-26T21:46:04.128Z,97419.44
2023-03-26T21:48:31.908Z,97413.34
2023-03-26T21:51:44.622Z,97442.47
2023-03-26T21:54:32.729Z,97435.50
2023-03-26T21:57:24.191Z,97419.44
2023-03-26T21:59:58.670Z,97424.13
2023-03-26T22:02:33.499Z,97428.19
2023-03-26T22:05:14.286Z,97421.00
2023-03-26T22:08:03.410Z,97405.81
2023-03-26T22:10:32.334Z,97397.38
2023-03-26T22:13:00.666Z,97420.13
2023-03-26T22:15:31.179Z,97404.34
2023-03-26T22:18:03.429Z,97405.97
2023-03-26T22:20:31.320Z,97407.47
2023-03-26T22:23:00.538Z,97380.84
2023-03-26T22:25:28.092Z,97404.75
2023-03-26T22:27:55.492Z,97401.78
2023-03-26T22:30:22.809Z,97402.25
2023-03-26T22:32:50.589Z,97379.50
2023-03-26T22:35:18.242Z,97397.50
2023-03-26T22:37:46.405Z,97398.50
2023-03-26T22:40:13.967Z,97399.16
2023-03-26T22:42:42.259Z,97400.03
2023-03-26T22:45:10.246Z,97388.66
2023-03-26T22:47:38.520Z,97378.44
2023-03-26T22:50:10.065Z,97388.28
2023-03-26T22:52:37.956Z,97384.19
2023-03-26T22:55:08.737Z,97386.59
2023-03-26T22:57:36.594Z,97381.38
2023-03-26T23:00:21.212Z,97389.19
2023-03-26T23:02:48.914Z,97396.25
2023-03-26T23:05:19.671Z,97366.69
2023-03-26T23:07:49.058Z,97387.34
2023-03-26T23:10:16.778Z,97368.88
2023-03-26T23:12:44.344Z,97368.38
2023-03-26T23:15:12.249Z,97371.94
2023-03-26T23:17:39.665Z,97369.72
2023-03-26T23:20:15.611Z,97341.59
2023-03-26T23:22:43.481Z,97353.78
2023-03-26T23:25:12.508Z,97357.66
2023-03-26T23:27:41.775Z,97350.91
2023-03-26T23:30:11.054Z,97335.97
2023-03-26T23:32:39.352Z,97335.06
2023-03-26T23:35:07.527Z,97347.66
2023-03-26T23:37:35.419Z,97329.97
2023-03-26T23:40:07.818Z,97319.09
2023-03-26T23:42:35.239Z,97340.19
2023-03-26T23:45:02.798Z,97341.13
2023-03-26T23:47:35.058Z,97349.22
2023-03-26T23:50:03.151Z,97325.31
2023-03-26T23:52:31.275Z,97336.69
2023-03-26T23:55:01.768Z,97311.28
2023-03-26T23:57:29.446Z,97316.50
2023-03-26T23:59:56.961Z,97320.00
